Aeroporto :
LOGIN :

Iscrizione | Disclaimer

   EN    FR    IT 

 










Sommario :    VFR   VFR Marginale   IFR   IFR Intensivo   IFR Molto Intensivo
Visibilità : 
Base nubi : 
>= 8 km
>= 3000ft
5 / 8 km
1000 / 3000 ft
1500m / 5 km
500 / 1000 ft
800 / 1500m
200 / 500 ft
< 800m
< 200 ft
Simboli :   Temporali  Nebbia  Neve Forte  Precipitazioni Forti  Vento > 20 kt
SIGMETs :   Varie  Temporali  Ghiacco  Turbolenza  Onda orograficha  Ceneri Vulcaniche






- Altitudine del aeroporto : 348 ft
- Codice IATA : STN


EGSS - London Stansted

ULTIMO METAR :
  • 261550Z AUTO 34005KT 280V030 9999 NCD 25/09 Q1035

METARs OBSOLETI :
  • 261520Z AUTO 32005KT 260V010 9999 NCD 24/07 Q1035
  • 261450Z AUTO 34007KT 300V030 9999 NCD 24/04 Q1035
  • 261420Z AUTO 31006KT 260V040 9999 NCD 24/04 Q1035
  • 261350Z AUTO 30006KT 240V350 9999 NCD 23/04 Q1035
  • 261320Z AUTO 28007KT 220V310 9999 NCD 23/06 Q1035

TAF TAF EGSS
Valido dal 26 a 12 ore il 27 a 18 ore UTC


261101Z 2612/2718 31006KT 9999 SCT045
PROB30 2715/2718 13010KT
ATIS : +44 1279 669 325



MetMap, La meteo Aeronautica in un colpo d'occhio ! - Copyright ORBIFLY Dicembre 2007 - Disclaimer

ORBIFLY MET'MAP TEAM :

Programmazione e sviluppo : Alexandra Zaïnal
Concezione : Baudouin d'Aumeries
Aiuto per la programmazione : Marc-Olivier Méhu
Supporto tecnico e logistico : Manuel Goepfert
Aiuto per la traduzione : Arnaldo La Scala

Contatto : metmap@orbifly.com




FONTI E CREDITI :

   NOAA